sensor_id;sensor_type;location;lat;lon;timestamp;P1;durP1;ratioP1;P2;durP2;ratioP2
19509;SDS011;9896;42.486;26.506;2022-12-26T00:00:24;10.57;;;6.33;;
19509;SDS011;9896;42.486;26.506;2022-12-26T00:02:50;13.70;;;6.03;;
19509;SDS011;9896;42.486;26.506;2022-12-26T00:05:15;12.33;;;6.30;;
19509;SDS011;9896;42.486;26.506;2022-12-26T00:07:40;12.03;;;6.20;;
19509;SDS011;9896;42.486;26.506;2022-12-26T00:10:06;11.27;;;6.27;;
19509;SDS011;9896;42.486;26.506;2022-12-26T00:12:31;15.77;;;6.70;;
19509;SDS011;9896;42.486;26.506;2022-12-26T00:14:57;10.93;;;6.10;;
19509;SDS011;9896;42.486;26.506;2022-12-26T00:17:22;16.67;;;8.00;;
19509;SDS011;9896;42.486;26.506;2022-12-26T00:19:47;15.10;;;6.90;;
19509;SDS011;9896;42.486;26.506;2022-12-26T00:22:13;16.50;;;8.20;;
19509;SDS011;9896;42.486;26.506;2022-12-26T00:24:40;15.13;;;6.73;;
19509;SDS011;9896;42.486;26.506;2022-12-26T00:27:05;12.80;;;6.80;;
19509;SDS011;9896;42.486;26.506;2022-12-26T00:29:30;13.73;;;6.33;;
19509;SDS011;9896;42.486;26.506;2022-12-26T00:31:56;12.23;;;6.37;;
19509;SDS011;9896;42.486;26.506;2022-12-26T00:34:21;12.53;;;6.10;;
19509;SDS011;9896;42.486;26.506;2022-12-26T00:36:47;10.00;;;6.17;;
19509;SDS011;9896;42.486;26.506;2022-12-26T00:39:12;14.63;;;7.17;;
19509;SDS011;9896;42.486;26.506;2022-12-26T00:41:37;15.03;;;8.43;;
19509;SDS011;9896;42.486;26.506;2022-12-26T00:44:03;11.30;;;7.10;;
19509;SDS011;9896;42.486;26.506;2022-12-26T00:46:29;14.20;;;7.93;;
19509;SDS011;9896;42.486;26.506;2022-12-26T00:48:55;19.80;;;10.17;;
19509;SDS011;9896;42.486;26.506;2022-12-26T00:51:20;15.73;;;9.03;;
19509;SDS011;9896;42.486;26.506;2022-12-26T00:53:46;17.70;;;10.07;;
19509;SDS011;9896;42.486;26.506;2022-12-26T00:56:11;19.70;;;10.93;;
19509;SDS011;9896;42.486;26.506;2022-12-26T00:58:37;15.87;;;8.23;;
19509;SDS011;9896;42.486;26.506;2022-12-26T01:01:21;16.73;;;8.80;;
19509;SDS011;9896;42.486;26.506;2022-12-26T01:03:47;12.17;;;6.57;;
19509;SDS011;9896;42.486;26.506;2022-12-26T01:06:13;19.33;;;9.53;;
19509;SDS011;9896;42.486;26.506;2022-12-26T01:08:38;16.40;;;8.10;;
19509;SDS011;9896;42.486;26.506;2022-12-26T01:11:05;5.67;;;3.83;;
19509;SDS011;9896;42.486;26.506;2022-12-26T01:13:31;11.87;;;7.03;;
19509;SDS011;9896;42.486;26.506;2022-12-26T01:15:57;11.60;;;6.17;;
19509;SDS011;9896;42.486;26.506;2022-12-26T01:18:22;12.97;;;6.10;;
19509;SDS011;9896;42.486;26.506;2022-12-26T01:20:48;11.63;;;6.73;;
19509;SDS011;9896;42.486;26.506;2022-12-26T01:23:14;10.37;;;5.53;;
19509;SDS011;9896;42.486;26.506;2022-12-26T01:25:39;11.20;;;5.97;;
19509;SDS011;9896;42.486;26.506;2022-12-26T01:28:05;12.87;;;5.97;;
19509;SDS011;9896;42.486;26.506;2022-12-26T01:30:30;11.03;;;6.23;;
19509;SDS011;9896;42.486;26.506;2022-12-26T01:32:56;9.60;;;5.90;;
19509;SDS011;9896;42.486;26.506;2022-12-26T01:35:21;10.23;;;4.50;;
19509;SDS011;9896;42.486;26.506;2022-12-26T01:37:46;9.83;;;5.60;;
19509;SDS011;9896;42.486;26.506;2022-12-26T01:40:12;10.40;;;5.20;;
19509;SDS011;9896;42.486;26.506;2022-12-26T01:42:38;11.93;;;6.37;;
19509;SDS011;9896;42.486;26.506;2022-12-26T01:45:23;9.57;;;5.93;;
19509;SDS011;9896;42.486;26.506;2022-12-26T01:47:57;9.50;;;6.63;;
19509;SDS011;9896;42.486;26.506;2022-12-26T01:50:28;12.33;;;6.80;;
19509;SDS011;9896;42.486;26.506;2022-12-26T01:52:56;10.50;;;6.73;;
19509;SDS011;9896;42.486;26.506;2022-12-26T01:55:23;14.17;;;7.00;;
19509;SDS011;9896;42.486;26.506;2022-12-26T01:57:54;10.30;;;5.80;;
19509;SDS011;9896;42.486;26.506;2022-12-26T02:00:20;10.13;;;6.30;;
19509;SDS011;9896;42.486;26.506;2022-12-26T02:02:46;11.00;;;6.40;;
19509;SDS011;9896;42.486;26.506;2022-12-26T02:05:30;13.83;;;7.07;;
19509;SDS011;9896;42.486;26.506;2022-12-26T02:07:59;19.00;;;6.23;;
19509;SDS011;9896;42.486;26.506;2022-12-26T02:10:25;11.93;;;6.30;;
19509;SDS011;9896;42.486;26.506;2022-12-26T02:12:52;9.77;;;5.87;;
19509;SDS011;9896;42.486;26.506;2022-12-26T02:15:18;10.60;;;6.33;;
19509;SDS011;9896;42.486;26.506;2022-12-26T02:17:43;9.53;;;6.10;;
19509;SDS011;9896;42.486;26.506;2022-12-26T02:30:32;12.53;;;5.97;;
19509;SDS011;9896;42.486;26.506;2022-12-26T02:33:20;11.23;;;6.07;;
19509;SDS011;9896;42.486;26.506;2022-12-26T02:38:42;10.47;;;6.47;;
19509;SDS011;9896;42.486;26.506;2022-12-26T02:44:00;9.20;;;5.73;;
19509;SDS011;9896;42.486;26.506;2022-12-26T02:46:48;9.93;;;5.40;;
19509;SDS011;9896;42.486;26.506;2022-12-26T02:54:45;13.83;;;7.13;;
19509;SDS011;9896;42.486;26.506;2022-12-26T02:57:36;9.43;;;5.70;;
19509;SDS011;9896;42.486;26.506;2022-12-26T03:00:32;11.77;;;6.20;;
19509;SDS011;9896;42.486;26.506;2022-12-26T03:03:21;14.40;;;6.37;;
19509;SDS011;9896;42.486;26.506;2022-12-26T03:06:13;6.17;;;4.57;;
19509;SDS011;9896;42.486;26.506;2022-12-26T03:09:05;12.20;;;7.07;;
19509;SDS011;9896;42.486;26.506;2022-12-26T03:11:51;10.90;;;6.30;;
19509;SDS011;9896;42.486;26.506;2022-12-26T03:17:05;12.47;;;7.10;;
19509;SDS011;9896;42.486;26.506;2022-12-26T03:19:48;12.73;;;6.70;;
19509;SDS011;9896;42.486;26.506;2022-12-26T03:22:27;9.93;;;6.97;;
19509;SDS011;9896;42.486;26.506;2022-12-26T03:24:56;13.13;;;6.87;;
19509;SDS011;9896;42.486;26.506;2022-12-26T03:27:41;14.30;;;7.47;;
19509;SDS011;9896;42.486;26.506;2022-12-26T03:30:06;14.97;;;7.03;;
19509;SDS011;9896;42.486;26.506;2022-12-26T03:32:55;14.10;;;7.67;;
19509;SDS011;9896;42.486;26.506;2022-12-26T03:35:21;15.60;;;7.60;;
19509;SDS011;9896;42.486;26.506;2022-12-26T03:48:51;14.37;;;6.70;;
19509;SDS011;9896;42.486;26.506;2022-12-26T03:51:50;11.67;;;7.80;;
19509;SDS011;9896;42.486;26.506;2022-12-26T03:57:34;12.23;;;7.40;;
19509;SDS011;9896;42.486;26.506;2022-12-26T04:00:19;11.80;;;6.93;;
19509;SDS011;9896;42.486;26.506;2022-12-26T04:03:06;11.13;;;7.50;;
19509;SDS011;9896;42.486;26.506;2022-12-26T04:05:51;13.90;;;7.73;;
19509;SDS011;9896;42.486;26.506;2022-12-26T04:08:56;16.03;;;7.80;;
19509;SDS011;9896;42.486;26.506;2022-12-26T04:11:42;15.90;;;8.23;;
19509;SDS011;9896;42.486;26.506;2022-12-26T04:14:44;18.83;;;9.90;;
19509;SDS011;9896;42.486;26.506;2022-12-26T04:17:42;17.77;;;9.07;;
19509;SDS011;9896;42.486;26.506;2022-12-26T04:21:11;26.40;;;13.10;;
19509;SDS011;9896;42.486;26.506;2022-12-26T04:23:48;26.43;;;12.33;;
19509;SDS011;9896;42.486;26.506;2022-12-26T04:26:31;18.70;;;9.80;;
19509;SDS011;9896;42.486;26.506;2022-12-26T04:29:17;19.17;;;10.33;;
19509;SDS011;9896;42.486;26.506;2022-12-26T04:35:14;18.40;;;9.03;;
19509;SDS011;9896;42.486;26.506;2022-12-26T04:37:55;13.30;;;7.63;;
19509;SDS011;9896;42.486;26.506;2022-12-26T04:40:43;16.30;;;8.87;;
19509;SDS011;9896;42.486;26.506;2022-12-26T04:43:28;16.27;;;7.60;;
19509;SDS011;9896;42.486;26.506;2022-12-26T04:46:13;18.77;;;10.53;;
19509;SDS011;9896;42.486;26.506;2022-12-26T04:48:42;14.57;;;8.67;;
19509;SDS011;9896;42.486;26.506;2022-12-26T04:51:27;13.10;;;7.10;;
19509;SDS011;9896;42.486;26.506;2022-12-26T04:53:52;14.07;;;6.97;;
19509;SDS011;9896;42.486;26.506;2022-12-26T04:56:18;10.93;;;6.27;;
19509;SDS011;9896;42.486;26.506;2022-12-26T04:58:43;10.43;;;6.53;;
19509;SDS011;9896;42.486;26.506;2022-12-26T05:01:08;11.63;;;6.50;;
19509;SDS011;9896;42.486;26.506;2022-12-26T05:03:52;21.30;;;9.37;;
19509;SDS011;9896;42.486;26.506;2022-12-26T05:06:36;17.73;;;10.07;;
19509;SDS011;9896;42.486;26.506;2022-12-26T05:09:20;21.30;;;10.30;;
19509;SDS011;9896;42.486;26.506;2022-12-26T05:12:02;16.77;;;8.50;;
19509;SDS011;9896;42.486;26.506;2022-12-26T05:14:27;18.03;;;9.77;;
19509;SDS011;9896;42.486;26.506;2022-12-26T05:16:55;23.13;;;12.47;;
19509;SDS011;9896;42.486;26.506;2022-12-26T05:19:39;24.83;;;13.47;;
19509;SDS011;9896;42.486;26.506;2022-12-26T05:22:23;21.90;;;11.53;;
19509;SDS011;9896;42.486;26.506;2022-12-26T05:25:12;22.13;;;12.43;;
19509;SDS011;9896;42.486;26.506;2022-12-26T05:27:58;31.57;;;16.20;;
19509;SDS011;9896;42.486;26.506;2022-12-26T05:30:42;32.50;;;16.00;;
19509;SDS011;9896;42.486;26.506;2022-12-26T05:33:07;30.20;;;15.10;;
19509;SDS011;9896;42.486;26.506;2022-12-26T05:35:51;24.93;;;13.97;;
19509;SDS011;9896;42.486;26.506;2022-12-26T05:38:17;22.80;;;8.60;;
19509;SDS011;9896;42.486;26.506;2022-12-26T05:40:42;10.90;;;6.90;;
19509;SDS011;9896;42.486;26.506;2022-12-26T05:43:09;166.37;;;66.33;;
19509;SDS011;9896;42.486;26.506;2022-12-26T05:45:34;35.20;;;14.80;;
19509;SDS011;9896;42.486;26.506;2022-12-26T05:48:00;15.47;;;7.23;;
19509;SDS011;9896;42.486;26.506;2022-12-26T05:50:25;11.40;;;6.93;;
19509;SDS011;9896;42.486;26.506;2022-12-26T05:52:51;14.63;;;6.40;;
19509;SDS011;9896;42.486;26.506;2022-12-26T05:55:18;15.50;;;7.77;;
19509;SDS011;9896;42.486;26.506;2022-12-26T05:57:43;15.13;;;6.87;;
19509;SDS011;9896;42.486;26.506;2022-12-26T06:00:09;13.63;;;8.57;;
19509;SDS011;9896;42.486;26.506;2022-12-26T06:02:34;12.80;;;7.80;;
19509;SDS011;9896;42.486;26.506;2022-12-26T06:05:00;12.97;;;7.33;;
19509;SDS011;9896;42.486;26.506;2022-12-26T06:07:25;11.43;;;6.33;;
19509;SDS011;9896;42.486;26.506;2022-12-26T06:09:51;14.30;;;6.53;;
19509;SDS011;9896;42.486;26.506;2022-12-26T06:12:16;15.77;;;8.27;;
19509;SDS011;9896;42.486;26.506;2022-12-26T06:14:41;14.83;;;8.43;;
19509;SDS011;9896;42.486;26.506;2022-12-26T06:17:07;14.07;;;6.67;;
19509;SDS011;9896;42.486;26.506;2022-12-26T06:19:32;12.93;;;6.80;;
19509;SDS011;9896;42.486;26.506;2022-12-26T06:21:57;10.10;;;5.43;;
19509;SDS011;9896;42.486;26.506;2022-12-26T06:24:23;12.87;;;6.33;;
19509;SDS011;9896;42.486;26.506;2022-12-26T06:26:48;17.10;;;9.20;;
19509;SDS011;9896;42.486;26.506;2022-12-26T06:29:13;13.37;;;8.53;;
19509;SDS011;9896;42.486;26.506;2022-12-26T06:31:39;13.60;;;8.20;;
19509;SDS011;9896;42.486;26.506;2022-12-26T06:34:04;15.37;;;7.33;;
19509;SDS011;9896;42.486;26.506;2022-12-26T06:36:30;18.10;;;10.70;;
19509;SDS011;9896;42.486;26.506;2022-12-26T06:38:55;17.87;;;9.53;;
19509;SDS011;9896;42.486;26.506;2022-12-26T06:41:21;18.33;;;10.33;;
19509;SDS011;9896;42.486;26.506;2022-12-26T06:43:47;29.67;;;15.50;;
19509;SDS011;9896;42.486;26.506;2022-12-26T06:46:14;45.60;;;21.03;;
19509;SDS011;9896;42.486;26.506;2022-12-26T06:48:40;40.50;;;20.23;;
19509;SDS011;9896;42.486;26.506;2022-12-26T06:51:07;42.30;;;23.53;;
19509;SDS011;9896;42.486;26.506;2022-12-26T06:53:33;63.97;;;33.97;;
19509;SDS011;9896;42.486;26.506;2022-12-26T07:01:18;98.23;;;49.03;;
19509;SDS011;9896;42.486;26.506;2022-12-26T07:03:44;96.97;;;49.13;;
19509;SDS011;9896;42.486;26.506;2022-12-26T07:06:11;95.90;;;48.17;;
19509;SDS011;9896;42.486;26.506;2022-12-26T07:08:37;111.80;;;56.30;;
19509;SDS011;9896;42.486;26.506;2022-12-26T07:11:02;121.97;;;58.87;;
19509;SDS011;9896;42.486;26.506;2022-12-26T07:13:28;95.93;;;50.77;;
19509;SDS011;9896;42.486;26.506;2022-12-26T07:15:53;82.50;;;41.30;;
19509;SDS011;9896;42.486;26.506;2022-12-26T07:18:19;55.73;;;27.27;;
19509;SDS011;9896;42.486;26.506;2022-12-26T07:20:44;54.07;;;25.97;;
19509;SDS011;9896;42.486;26.506;2022-12-26T07:23:10;46.67;;;25.80;;
19509;SDS011;9896;42.486;26.506;2022-12-26T07:25:35;44.17;;;26.00;;
19509;SDS011;9896;42.486;26.506;2022-12-26T07:28:01;52.53;;;29.93;;
19509;SDS011;9896;42.486;26.506;2022-12-26T07:30:26;65.77;;;35.37;;
19509;SDS011;9896;42.486;26.506;2022-12-26T07:32:52;81.07;;;41.87;;
19509;SDS011;9896;42.486;26.506;2022-12-26T07:35:17;100.13;;;49.80;;
19509;SDS011;9896;42.486;26.506;2022-12-26T07:37:43;139.70;;;69.50;;
19509;SDS011;9896;42.486;26.506;2022-12-26T07:40:08;176.77;;;89.97;;
19509;SDS011;9896;42.486;26.506;2022-12-26T07:42:34;176.47;;;87.23;;
19509;SDS011;9896;42.486;26.506;2022-12-26T07:45:00;157.83;;;81.63;;
19509;SDS011;9896;42.486;26.506;2022-12-26T07:47:25;145.37;;;73.10;;
19509;SDS011;9896;42.486;26.506;2022-12-26T07:49:50;148.43;;;75.30;;
19509;SDS011;9896;42.486;26.506;2022-12-26T07:52:16;119.50;;;61.97;;
19509;SDS011;9896;42.486;26.506;2022-12-26T07:54:42;119.20;;;60.73;;
19509;SDS011;9896;42.486;26.506;2022-12-26T07:57:07;116.30;;;59.40;;
19509;SDS011;9896;42.486;26.506;2022-12-26T07:59:32;113.77;;;59.60;;
19509;SDS011;9896;42.486;26.506;2022-12-26T08:01:58;97.07;;;51.73;;
19509;SDS011;9896;42.486;26.506;2022-12-26T08:04:23;113.20;;;56.67;;
19509;SDS011;9896;42.486;26.506;2022-12-26T08:06:49;104.17;;;53.63;;
19509;SDS011;9896;42.486;26.506;2022-12-26T08:09:14;104.30;;;56.40;;
19509;SDS011;9896;42.486;26.506;2022-12-26T08:11:40;99.70;;;50.97;;
19509;SDS011;9896;42.486;26.506;2022-12-26T08:14:05;61.03;;;31.40;;
19509;SDS011;9896;42.486;26.506;2022-12-26T08:16:31;70.30;;;37.73;;
19509;SDS011;9896;42.486;26.506;2022-12-26T08:18:56;80.50;;;41.63;;
19509;SDS011;9896;42.486;26.506;2022-12-26T08:21:21;70.67;;;38.43;;
19509;SDS011;9896;42.486;26.506;2022-12-26T08:23:47;64.93;;;37.43;;
19509;SDS011;9896;42.486;26.506;2022-12-26T08:26:12;65.23;;;35.90;;
19509;SDS011;9896;42.486;26.506;2022-12-26T08:28:44;65.87;;;35.23;;
19509;SDS011;9896;42.486;26.506;2022-12-26T08:31:10;56.60;;;28.80;;
19509;SDS011;9896;42.486;26.506;2022-12-26T08:33:36;44.63;;;25.93;;
19509;SDS011;9896;42.486;26.506;2022-12-26T08:36:02;40.70;;;23.80;;
19509;SDS011;9896;42.486;26.506;2022-12-26T08:38:28;51.43;;;28.90;;
19509;SDS011;9896;42.486;26.506;2022-12-26T08:40:53;51.43;;;29.10;;
19509;SDS011;9896;42.486;26.506;2022-12-26T08:43:20;51.50;;;27.63;;
19509;SDS011;9896;42.486;26.506;2022-12-26T08:45:45;51.07;;;26.57;;
19509;SDS011;9896;42.486;26.506;2022-12-26T08:48:11;50.40;;;27.63;;
19509;SDS011;9896;42.486;26.506;2022-12-26T08:50:36;51.80;;;28.63;;
19509;SDS011;9896;42.486;26.506;2022-12-26T08:53:01;49.90;;;28.20;;
19509;SDS011;9896;42.486;26.506;2022-12-26T08:55:27;50.07;;;28.20;;
19509;SDS011;9896;42.486;26.506;2022-12-26T08:57:52;42.37;;;25.83;;
19509;SDS011;9896;42.486;26.506;2022-12-26T09:00:18;38.70;;;22.27;;
19509;SDS011;9896;42.486;26.506;2022-12-26T09:02:43;34.13;;;19.90;;
19509;SDS011;9896;42.486;26.506;2022-12-26T09:05:08;35.03;;;19.13;;
19509;SDS011;9896;42.486;26.506;2022-12-26T09:07:34;30.43;;;18.43;;
19509;SDS011;9896;42.486;26.506;2022-12-26T09:09:59;34.83;;;20.27;;
19509;SDS011;9896;42.486;26.506;2022-12-26T09:12:25;39.50;;;22.17;;
19509;SDS011;9896;42.486;26.506;2022-12-26T09:14:50;35.77;;;20.97;;
19509;SDS011;9896;42.486;26.506;2022-12-26T09:17:16;38.13;;;21.53;;
19509;SDS011;9896;42.486;26.506;2022-12-26T09:19:41;37.87;;;20.57;;
19509;SDS011;9896;42.486;26.506;2022-12-26T09:22:06;42.40;;;23.60;;
19509;SDS011;9896;42.486;26.506;2022-12-26T09:24:51;38.80;;;21.80;;
19509;SDS011;9896;42.486;26.506;2022-12-26T09:27:16;43.00;;;21.50;;
19509;SDS011;9896;42.486;26.506;2022-12-26T09:29:42;34.83;;;21.33;;
19509;SDS011;9896;42.486;26.506;2022-12-26T09:32:07;37.33;;;22.23;;
19509;SDS011;9896;42.486;26.506;2022-12-26T09:34:33;42.47;;;22.33;;
19509;SDS011;9896;42.486;26.506;2022-12-26T09:36:58;34.73;;;18.67;;
19509;SDS011;9896;42.486;26.506;2022-12-26T09:39:24;33.47;;;18.90;;
19509;SDS011;9896;42.486;26.506;2022-12-26T09:42:00;35.97;;;17.60;;
19509;SDS011;9896;42.486;26.506;2022-12-26T09:44:30;28.10;;;14.67;;
19509;SDS011;9896;42.486;26.506;2022-12-26T09:49:30;19.87;;;9.93;;
19509;SDS011;9896;42.486;26.506;2022-12-26T09:51:58;16.43;;;10.97;;
19509;SDS011;9896;42.486;26.506;2022-12-26T09:54:33;18.57;;;9.87;;
19509;SDS011;9896;42.486;26.506;2022-12-26T09:56:59;25.40;;;11.17;;
19509;SDS011;9896;42.486;26.506;2022-12-26T09:59:26;22.40;;;11.90;;
19509;SDS011;9896;42.486;26.506;2022-12-26T10:01:51;24.40;;;13.47;;
19509;SDS011;9896;42.486;26.506;2022-12-26T10:06:52;24.73;;;15.10;;
19509;SDS011;9896;42.486;26.506;2022-12-26T10:22:12;21.83;;;13.47;;
19509;SDS011;9896;42.486;26.506;2022-12-26T10:24:39;22.97;;;14.30;;
19509;SDS011;9896;42.486;26.506;2022-12-26T10:27:15;26.97;;;13.80;;
19509;SDS011;9896;42.486;26.506;2022-12-26T10:32:20;24.07;;;13.73;;
19509;SDS011;9896;42.486;26.506;2022-12-26T10:34:48;30.33;;;15.97;;
19509;SDS011;9896;42.486;26.506;2022-12-26T10:39:53;15.03;;;7.90;;
19509;SDS011;9896;42.486;26.506;2022-12-26T10:44:47;17.50;;;10.20;;
19509;SDS011;9896;42.486;26.506;2022-12-26T10:47:35;20.63;;;11.07;;
19509;SDS011;9896;42.486;26.506;2022-12-26T10:49:58;21.60;;;11.17;;
19509;SDS011;9896;42.486;26.506;2022-12-26T10:52:36;14.07;;;9.57;;
19509;SDS011;9896;42.486;26.506;2022-12-26T10:55:02;13.67;;;8.00;;
19509;SDS011;9896;42.486;26.506;2022-12-26T10:57:29;14.63;;;8.07;;
19509;SDS011;9896;42.486;26.506;2022-12-26T10:59:56;12.57;;;7.40;;
19509;SDS011;9896;42.486;26.506;2022-12-26T11:02:24;12.50;;;6.53;;
19509;SDS011;9896;42.486;26.506;2022-12-26T11:05:00;14.70;;;8.73;;
19509;SDS011;9896;42.486;26.506;2022-12-26T11:07:27;21.77;;;9.83;;
19509;SDS011;9896;42.486;26.506;2022-12-26T11:09:53;15.40;;;9.13;;
19509;SDS011;9896;42.486;26.506;2022-12-26T11:12:33;13.43;;;7.63;;
19509;SDS011;9896;42.486;26.506;2022-12-26T11:15:03;10.17;;;5.73;;
19509;SDS011;9896;42.486;26.506;2022-12-26T11:17:30;10.00;;;5.83;;
19509;SDS011;9896;42.486;26.506;2022-12-26T11:22:40;10.10;;;5.57;;
19509;SDS011;9896;42.486;26.506;2022-12-26T11:25:10;10.67;;;6.50;;
19509;SDS011;9896;42.486;26.506;2022-12-26T11:27:37;15.27;;;9.20;;
19509;SDS011;9896;42.486;26.506;2022-12-26T11:30:20;7.60;;;5.07;;
19509;SDS011;9896;42.486;26.506;2022-12-26T11:32:50;7.40;;;5.00;;
19509;SDS011;9896;42.486;26.506;2022-12-26T11:35:22;8.60;;;4.60;;
19509;SDS011;9896;42.486;26.506;2022-12-26T11:37:52;7.33;;;4.70;;
19509;SDS011;9896;42.486;26.506;2022-12-26T11:40:20;8.93;;;4.83;;
19509;SDS011;9896;42.486;26.506;2022-12-26T11:42:53;6.40;;;4.90;;
19509;SDS011;9896;42.486;26.506;2022-12-26T11:45:23;6.47;;;3.77;;
19509;SDS011;9896;42.486;26.506;2022-12-26T11:47:49;8.27;;;4.50;;
19509;SDS011;9896;42.486;26.506;2022-12-26T11:50:15;9.77;;;5.30;;
19509;SDS011;9896;42.486;26.506;2022-12-26T11:52:52;7.50;;;4.77;;
19509;SDS011;9896;42.486;26.506;2022-12-26T12:00:23;11.13;;;5.80;;
19509;SDS011;9896;42.486;26.506;2022-12-26T12:02:49;8.87;;;5.40;;
19509;SDS011;9896;42.486;26.506;2022-12-26T12:05:26;7.63;;;4.87;;
19509;SDS011;9896;42.486;26.506;2022-12-26T12:26:25;10.50;;;6.43;;
19509;SDS011;9896;42.486;26.506;2022-12-26T12:28:57;13.83;;;6.80;;
19509;SDS011;9896;42.486;26.506;2022-12-26T12:38:59;7.63;;;4.60;;
19509;SDS011;9896;42.486;26.506;2022-12-26T13:01:53;5.40;;;4.23;;
19509;SDS011;9896;42.486;26.506;2022-12-26T13:04:32;5.87;;;3.57;;
19509;SDS011;9896;42.486;26.506;2022-12-26T13:07:01;4.80;;;3.20;;
19509;SDS011;9896;42.486;26.506;2022-12-26T13:09:29;7.47;;;3.90;;
19509;SDS011;9896;42.486;26.506;2022-12-26T13:11:58;10.23;;;4.70;;
19509;SDS011;9896;42.486;26.506;2022-12-26T13:14:45;7.20;;;4.23;;
19509;SDS011;9896;42.486;26.506;2022-12-26T13:17:16;7.60;;;4.27;;
19509;SDS011;9896;42.486;26.506;2022-12-26T13:19:44;8.10;;;4.60;;
19509;SDS011;9896;42.486;26.506;2022-12-26T13:22:16;8.23;;;4.40;;
19509;SDS011;9896;42.486;26.506;2022-12-26T13:24:45;6.70;;;3.77;;
19509;SDS011;9896;42.486;26.506;2022-12-26T13:27:31;5.80;;;3.73;;
19509;SDS011;9896;42.486;26.506;2022-12-26T13:29:59;9.33;;;3.60;;
19509;SDS011;9896;42.486;26.506;2022-12-26T13:32:29;7.63;;;3.23;;
19509;SDS011;9896;42.486;26.506;2022-12-26T13:34:56;4.87;;;3.60;;
19509;SDS011;9896;42.486;26.506;2022-12-26T13:39:59;5.80;;;4.20;;
19509;SDS011;9896;42.486;26.506;2022-12-26T13:42:30;5.07;;;3.30;;
19509;SDS011;9896;42.486;26.506;2022-12-26T13:47:58;6.10;;;3.70;;
19509;SDS011;9896;42.486;26.506;2022-12-26T13:55:50;5.50;;;4.33;;
19509;SDS011;9896;42.486;26.506;2022-12-26T13:58:36;8.13;;;4.17;;
19509;SDS011;9896;42.486;26.506;2022-12-26T14:09:08;8.23;;;5.37;;
19509;SDS011;9896;42.486;26.506;2022-12-26T14:16:33;8.90;;;5.20;;
19509;SDS011;9896;42.486;26.506;2022-12-26T14:21:42;23.73;;;9.80;;
19509;SDS011;9896;42.486;26.506;2022-12-26T14:32:27;8.57;;;6.03;;
19509;SDS011;9896;42.486;26.506;2022-12-26T14:37:49;7.90;;;5.23;;
19509;SDS011;9896;42.486;26.506;2022-12-26T14:40:30;8.10;;;5.00;;
19509;SDS011;9896;42.486;26.506;2022-12-26T14:50:48;11.07;;;6.30;;
19509;SDS011;9896;42.486;26.506;2022-12-26T15:00:51;11.77;;;7.67;;
19509;SDS011;9896;42.486;26.506;2022-12-26T15:03:29;21.07;;;11.63;;
19509;SDS011;9896;42.486;26.506;2022-12-26T15:06:01;28.00;;;13.37;;
19509;SDS011;9896;42.486;26.506;2022-12-26T15:17:01;35.53;;;19.00;;
19509;SDS011;9896;42.486;26.506;2022-12-26T15:19:43;39.27;;;19.60;;
19509;SDS011;9896;42.486;26.506;2022-12-26T15:27:34;42.97;;;21.43;;
19509;SDS011;9896;42.486;26.506;2022-12-26T15:30:17;50.90;;;22.57;;
19509;SDS011;9896;42.486;26.506;2022-12-26T15:32:58;51.83;;;27.47;;
19509;SDS011;9896;42.486;26.506;2022-12-26T15:40:32;59.40;;;32.20;;
19509;SDS011;9896;42.486;26.506;2022-12-26T15:45:28;25.50;;;11.00;;
19509;SDS011;9896;42.486;26.506;2022-12-26T15:48:01;33.43;;;17.37;;
19509;SDS011;9896;42.486;26.506;2022-12-26T15:53:24;41.77;;;19.90;;
19509;SDS011;9896;42.486;26.506;2022-12-26T16:01:00;48.40;;;22.00;;
19509;SDS011;9896;42.486;26.506;2022-12-26T16:05:52;28.17;;;15.03;;
19509;SDS011;9896;42.486;26.506;2022-12-26T16:13:50;24.83;;;12.90;;
19509;SDS011;9896;42.486;26.506;2022-12-26T16:16:23;19.73;;;10.53;;
19509;SDS011;9896;42.486;26.506;2022-12-26T16:18:49;19.50;;;10.47;;
19509;SDS011;9896;42.486;26.506;2022-12-26T16:21:14;12.30;;;6.90;;
19509;SDS011;9896;42.486;26.506;2022-12-26T16:24:00;14.33;;;7.90;;
19509;SDS011;9896;42.486;26.506;2022-12-26T16:26:27;19.17;;;9.47;;
19509;SDS011;9896;42.486;26.506;2022-12-26T16:28:53;29.57;;;12.07;;
19509;SDS011;9896;42.486;26.506;2022-12-26T16:31:20;20.40;;;10.07;;
19509;SDS011;9896;42.486;26.506;2022-12-26T16:33:46;16.73;;;9.67;;
19509;SDS011;9896;42.486;26.506;2022-12-26T16:36:19;19.93;;;10.00;;
19509;SDS011;9896;42.486;26.506;2022-12-26T16:38:45;26.90;;;14.03;;
19509;SDS011;9896;42.486;26.506;2022-12-26T16:41:28;25.83;;;13.30;;
19509;SDS011;9896;42.486;26.506;2022-12-26T16:43:54;23.80;;;12.37;;
19509;SDS011;9896;42.486;26.506;2022-12-26T16:46:20;28.83;;;14.43;;
19509;SDS011;9896;42.486;26.506;2022-12-26T16:48:58;30.53;;;17.03;;
19509;SDS011;9896;42.486;26.506;2022-12-26T16:51:37;37.30;;;19.50;;
19509;SDS011;9896;42.486;26.506;2022-12-26T16:59:23;65.43;;;33.73;;
19509;SDS011;9896;42.486;26.506;2022-12-26T17:01:52;40.57;;;23.53;;
19509;SDS011;9896;42.486;26.506;2022-12-26T17:04:22;20.63;;;10.87;;
19509;SDS011;9896;42.486;26.506;2022-12-26T17:06:53;23.77;;;13.00;;
19509;SDS011;9896;42.486;26.506;2022-12-26T17:09:19;13.93;;;7.23;;
19509;SDS011;9896;42.486;26.506;2022-12-26T17:14:30;16.80;;;7.70;;
19509;SDS011;9896;42.486;26.506;2022-12-26T17:16:57;15.73;;;7.60;;
19509;SDS011;9896;42.486;26.506;2022-12-26T17:19:25;13.33;;;6.70;;
19509;SDS011;9896;42.486;26.506;2022-12-26T17:24:34;9.40;;;5.87;;
19509;SDS011;9896;42.486;26.506;2022-12-26T17:27:07;11.97;;;6.67;;
19509;SDS011;9896;42.486;26.506;2022-12-26T17:29:34;15.60;;;8.73;;
19509;SDS011;9896;42.486;26.506;2022-12-26T17:32:00;13.90;;;7.47;;
19509;SDS011;9896;42.486;26.506;2022-12-26T17:34:29;21.30;;;11.17;;
19509;SDS011;9896;42.486;26.506;2022-12-26T17:36:55;17.90;;;10.80;;
19509;SDS011;9896;42.486;26.506;2022-12-26T17:39:26;18.30;;;10.57;;
19509;SDS011;9896;42.486;26.506;2022-12-26T17:41:55;23.70;;;10.63;;
19509;SDS011;9896;42.486;26.506;2022-12-26T17:44:43;14.40;;;7.43;;
19509;SDS011;9896;42.486;26.506;2022-12-26T17:49:37;9.23;;;6.10;;
19509;SDS011;9896;42.486;26.506;2022-12-26T17:52:03;12.50;;;6.77;;
19509;SDS011;9896;42.486;26.506;2022-12-26T17:54:28;13.47;;;7.47;;
19509;SDS011;9896;42.486;26.506;2022-12-26T17:56:54;21.57;;;10.70;;
19509;SDS011;9896;42.486;26.506;2022-12-26T17:59:19;17.50;;;9.80;;
19509;SDS011;9896;42.486;26.506;2022-12-26T18:01:44;12.77;;;7.80;;
19509;SDS011;9896;42.486;26.506;2022-12-26T18:04:10;18.47;;;8.60;;
19509;SDS011;9896;42.486;26.506;2022-12-26T18:06:35;15.23;;;9.37;;
19509;SDS011;9896;42.486;26.506;2022-12-26T18:09:00;16.77;;;8.57;;
19509;SDS011;9896;42.486;26.506;2022-12-26T18:11:26;12.83;;;7.33;;
19509;SDS011;9896;42.486;26.506;2022-12-26T18:13:51;22.73;;;9.97;;
19509;SDS011;9896;42.486;26.506;2022-12-26T18:16:17;16.23;;;8.43;;
19509;SDS011;9896;42.486;26.506;2022-12-26T18:18:43;16.87;;;9.13;;
19509;SDS011;9896;42.486;26.506;2022-12-26T18:21:11;23.13;;;12.83;;
19509;SDS011;9896;42.486;26.506;2022-12-26T18:23:37;29.03;;;13.53;;
19509;SDS011;9896;42.486;26.506;2022-12-26T18:26:04;16.30;;;9.40;;
19509;SDS011;9896;42.486;26.506;2022-12-26T18:28:30;20.23;;;10.90;;
19509;SDS011;9896;42.486;26.506;2022-12-26T18:30:56;25.00;;;12.27;;
19509;SDS011;9896;42.486;26.506;2022-12-26T18:33:22;27.27;;;12.70;;
19509;SDS011;9896;42.486;26.506;2022-12-26T18:35:47;32.70;;;16.63;;
19509;SDS011;9896;42.486;26.506;2022-12-26T18:38:14;35.73;;;16.33;;